createdAt,value
2023-03-13T00:00:10.752Z,72746.09
2023-03-13T00:00:45.617Z,72736.13
2023-03-13T00:01:19.153Z,72742.09
2023-03-13T00:01:54.419Z,72750.09
2023-03-13T00:02:26.793Z,72736.13
2023-03-13T00:02:59.083Z,72738.13
2023-03-13T00:03:33.901Z,72734.13
2023-03-13T00:04:06.595Z,72742.09
2023-03-13T00:04:38.875Z,72740.09
2023-03-13T00:05:13.838Z,72740.09
2023-03-13T00:05:48.876Z,72738.13
2023-03-13T00:06:21.653Z,72732.13
2023-03-13T00:06:57.747Z,72744.09
2023-03-13T00:07:30.005Z,72734.13
2023-03-13T00:08:02.243Z,72730.13
2023-03-13T00:08:37.113Z,72734.13
2023-03-13T00:09:11.488Z,72730.13
2023-03-13T00:09:43.863Z,72742.09
2023-03-13T00:10:18.876Z,72736.13
2023-03-13T00:10:51.095Z,72734.13
2023-03-13T00:11:23.345Z,72730.13
2023-03-13T00:11:58.207Z,72734.13
2023-03-13T00:12:30.435Z,72730.13
2023-03-13T00:13:02.687Z,72738.13
2023-03-13T00:13:37.705Z,72742.09
2023-03-13T00:14:10.356Z,72738.13
2023-03-13T00:14:42.587Z,72734.13
2023-03-13T00:15:17.419Z,72726.13
2023-03-13T00:15:49.767Z,72734.13
2023-03-13T00:16:22.058Z,72728.13
2023-03-13T00:16:57.168Z,72734.13
2023-03-13T00:17:29.475Z,72738.13
2023-03-13T00:18:01.715Z,72738.13
2023-03-13T00:18:37.950Z,72740.09
2023-03-13T00:19:10.615Z,72736.13
2023-03-13T00:19:43.161Z,72740.09
2023-03-13T00:20:18.827Z,72736.13
2023-03-13T00:20:58.573Z,72738.13
2023-03-13T00:21:33.480Z,72742.09
2023-03-13T00:22:05.815Z,72734.13
2023-03-13T00:22:38.120Z,72736.13
2023-03-13T00:23:13.411Z,72740.09
2023-03-13T00:23:46.397Z,72738.13
2023-03-13T00:24:18.671Z,72740.09
2023-03-13T00:24:53.637Z,72734.13
2023-03-13T00:25:25.869Z,72738.13
2023-03-13T00:25:58.892Z,72742.09
2023-03-13T00:26:31.485Z,72738.13
2023-03-13T00:27:07.080Z,72740.09
2023-03-13T00:27:39.485Z,72742.09
2023-03-13T00:28:11.717Z,72740.09
2023-03-13T00:28:47.130Z,72742.09
2023-03-13T00:29:19.426Z,72730.13
2023-03-13T00:29:51.866Z,72738.13
2023-03-13T00:30:26.881Z,72738.13
2023-03-13T00:31:02.863Z,72738.13
2023-03-13T00:31:35.237Z,72742.09
2023-03-13T00:32:10.713Z,72742.09
2023-03-13T00:32:43.447Z,72738.13
2023-03-13T00:33:15.767Z,72738.13
2023-03-13T00:33:52.251Z,72744.09
2023-03-13T00:34:27.545Z,72736.13
2023-03-13T00:34:59.817Z,72732.13
2023-03-13T00:35:32.069Z,72736.13
2023-03-13T00:36:11.912Z,72738.13
2023-03-13T00:36:44.176Z,72734.13
2023-03-13T00:37:16.417Z,72738.13
2023-03-13T00:37:51.244Z,72730.13
2023-03-13T00:38:23.488Z,72736.13
2023-03-13T00:38:56.360Z,72736.13
2023-03-13T00:39:31.204Z,72734.13
2023-03-13T00:40:08.251Z,72730.13
2023-03-13T00:40:41.061Z,72736.13
2023-03-13T00:41:17.653Z,72734.13
2023-03-13T00:41:49.939Z,72734.13
2023-03-13T00:42:23.510Z,72730.13
2023-03-13T00:42:58.350Z,72726.13
2023-03-13T00:43:31.000Z,72730.13
2023-03-13T00:44:03.823Z,72726.13
2023-03-13T00:44:40.084Z,72732.13
2023-03-13T00:45:12.903Z,72726.13
2023-03-13T00:45:45.347Z,72732.13
2023-03-13T00:46:21.904Z,72730.13
2023-03-13T00:46:54.229Z,72734.13
2023-03-13T00:47:26.619Z,72734.13
2023-03-13T00:48:01.471Z,72738.13
2023-03-13T00:48:33.844Z,72734.13
2023-03-13T00:49:06.212Z,72738.13
2023-03-13T00:49:41.856Z,72738.13
2023-03-13T00:50:14.773Z,72732.13
2023-03-13T00:50:47.184Z,72726.13
2023-03-13T00:51:27.429Z,72730.13
2023-03-13T00:52:00.226Z,72734.13
2023-03-13T00:52:32.490Z,72732.13
2023-03-13T00:53:07.319Z,72730.13
2023-03-13T00:53:39.677Z,72730.13
2023-03-13T00:54:11.937Z,72732.13
2023-03-13T00:54:46.761Z,72730.13
2023-03-13T00:55:19.009Z,72730.13
2023-03-13T00:55:56.208Z,72740.09
2023-03-13T00:56:31.967Z,72736.13
2023-03-13T00:57:04.568Z,72734.13
2023-03-13T00:57:37.658Z,72736.13
2023-03-13T00:58:10.036Z,72738.13
2023-03-13T00:58:46.194Z,72738.13
2023-03-13T00:59:18.443Z,72746.09
2023-03-13T00:59:50.754Z,72744.09
2023-03-13T01:00:25.892Z,72738.13
2023-03-13T01:00:58.247Z,72738.13
2023-03-13T01:01:35.068Z,72746.09
2023-03-13T01:02:07.478Z,72744.09
2023-03-13T01:02:42.394Z,72738.13
2023-03-13T01:03:15.704Z,72740.09
2023-03-13T01:03:52.469Z,72738.13
2023-03-13T01:04:24.709Z,72742.09
2023-03-13T01:04:59.148Z,72738.13
2023-03-13T01:05:34.869Z,72734.13
2023-03-13T01:06:09.446Z,72734.13
2023-03-13T01:06:46.899Z,72734.13
2023-03-13T01:07:19.141Z,72736.13
2023-03-13T01:07:51.467Z,72730.13
2023-03-13T01:08:26.340Z,72734.13
2023-03-13T01:08:59.288Z,72738.13
2023-03-13T01:09:32.486Z,72742.09
2023-03-13T01:10:08.468Z,72736.13
2023-03-13T01:10:40.701Z,72742.09
2023-03-13T01:11:14.580Z,72734.13
2023-03-13T01:11:49.566Z,72734.13
2023-03-13T01:12:21.819Z,72734.13
2023-03-13T01:12:54.052Z,72726.13
2023-03-13T01:13:26.413Z,72732.13
2023-03-13T01:14:02.764Z,72730.13
2023-03-13T01:14:35.031Z,72734.13
2023-03-13T01:15:08.557Z,72730.13
2023-03-13T01:15:43.416Z,72724.13
2023-03-13T01:16:17.409Z,72726.13
2023-03-13T01:16:49.697Z,72728.13
2023-03-13T01:17:24.609Z,72730.13
2023-03-13T01:17:57.035Z,72726.13
2023-03-13T01:18:29.352Z,72724.13
2023-03-13T01:19:06.947Z,72734.13
2023-03-13T01:19:39.217Z,72730.13
2023-03-13T01:20:12.396Z,72730.13
2023-03-13T01:20:47.241Z,72726.13
2023-03-13T01:21:21.749Z,72728.13
2023-03-13T01:21:59.186Z,72722.16
2023-03-13T01:22:31.441Z,72722.16
2023-03-13T01:23:05.159Z,72722.16
2023-03-13T01:23:39.996Z,72724.13
2023-03-13T01:24:12.858Z,72714.16
2023-03-13T01:24:46.319Z,72718.16
2023-03-13T01:25:21.324Z,72714.16
2023-03-13T01:25:54.546Z,72710.16
2023-03-13T01:26:27.031Z,72712.16
2023-03-13T01:27:02.104Z,72714.16
2023-03-13T01:27:34.547Z,72714.16
2023-03-13T01:28:07.218Z,72712.16
2023-03-13T01:28:40.074Z,72710.16
2023-03-13T01:29:16.120Z,72706.19
2023-03-13T01:29:48.868Z,72706.19
2023-03-13T01:30:21.225Z,72706.19
2023-03-13T01:30:57.188Z,72698.19
2023-03-13T01:31:31.111Z,72704.19
2023-03-13T01:32:07.502Z,72710.16
2023-03-13T01:32:39.921Z,72704.19
2023-03-13T01:33:12.184Z,72708.19
2023-03-13T01:33:47.585Z,72710.16
2023-03-13T01:34:21.253Z,72702.19
2023-03-13T01:34:53.528Z,72698.19
2023-03-13T01:35:28.409Z,72702.19
2023-03-13T01:36:02.522Z,72706.19
2023-03-13T01:36:39.308Z,72710.16
2023-03-13T01:37:14.159Z,72702.19
2023-03-13T01:37:46.404Z,72702.19
2023-03-13T01:38:21.388Z,72708.19
2023-03-13T01:38:55.467Z,72704.19
2023-03-13T01:39:27.812Z,72706.19
2023-03-13T01:40:02.685Z,72704.19
2023-03-13T01:40:40.385Z,72698.19
2023-03-13T01:41:12.882Z,72706.19
2023-03-13T01:41:47.742Z,72706.19
2023-03-13T01:42:20.210Z,72698.19
2023-03-13T01:42:53.517Z,72702.19
2023-03-13T01:43:29.423Z,72704.19
2023-03-13T01:44:04.163Z,72702.19
2023-03-13T01:44:52.977Z,72702.19
2023-03-13T01:46:04.355Z,72696.19
2023-03-13T01:46:46.397Z,72706.19
2023-03-13T01:47:37.387Z,72702.19
2023-03-13T01:48:14.596Z,72704.19
2023-03-13T01:48:56.207Z,72706.19
2023-03-13T01:49:30.580Z,72710.16
2023-03-13T01:50:07.322Z,72710.16
2023-03-13T01:51:07.545Z,72710.16
2023-03-13T01:51:42.247Z,72706.19
2023-03-13T01:52:19.405Z,72714.16
2023-03-13T01:53:17.469Z,72714.16
2023-03-13T01:53:53.888Z,72706.19
2023-03-13T01:54:33.588Z,72708.19
2023-03-13T01:55:09.118Z,72710.16
2023-03-13T01:55:42.438Z,72710.16
2023-03-13T01:56:21.615Z,72708.19
2023-03-13T01:56:55.469Z,72712.16
2023-03-13T01:57:32.489Z,72710.16
2023-03-13T01:58:04.942Z,72714.16
2023-03-13T01:58:38.581Z,72710.16
2023-03-13T01:59:16.609Z,72714.16
2023-03-13T01:59:51.304Z,72714.16
2023-03-13T02:00:30.664Z,72714.16
2023-03-13T02:01:03.122Z,72710.16
2023-03-13T02:01:38.837Z,72716.16
2023-03-13T02:02:11.377Z,72718.16
2023-03-13T02:02:47.994Z,72718.16
2023-03-13T02:03:21.518Z,72718.16
2023-03-13T02:03:56.751Z,72714.16
2023-03-13T02:04:32.203Z,72716.16
2023-03-13T02:05:06.284Z,72710.16
2023-03-13T02:05:41.958Z,72714.16
2023-03-13T02:06:14.365Z,72714.16
2023-03-13T02:06:48.483Z,72722.16
2023-03-13T02:07:31.197Z,72714.16
2023-03-13T02:08:06.815Z,72714.16
2023-03-13T02:08:41.437Z,72714.16
2023-03-13T02:09:18.944Z,72718.16
2023-03-13T02:09:53.753Z,72706.19
2023-03-13T02:10:27.229Z,72716.16
2023-03-13T02:11:10.064Z,72714.16
2023-03-13T02:11:48.153Z,72706.19
2023-03-13T02:12:26.490Z,72704.19
2023-03-13T02:13:02.429Z,72710.16
2023-03-13T02:13:34.702Z,72710.16
2023-03-13T02:14:07.639Z,72710.16
2023-03-13T02:14:45.167Z,72710.16
2023-03-13T02:15:19.706Z,72706.19
2023-03-13T02:15:52.613Z,72710.16
2023-03-13T02:16:28.180Z,72704.19
2023-03-13T02:17:01.304Z,72706.19
2023-03-13T02:17:34.739Z,72700.19
2023-03-13T02:18:10.681Z,72708.19
2023-03-13T02:18:43.504Z,72702.19
2023-03-13T02:19:18.998Z,72696.19
2023-03-13T02:19:54.712Z,72702.19
2023-03-13T02:20:27.053Z,72702.19
2023-03-13T02:21:05.892Z,72698.19
2023-03-13T02:21:45.269Z,72702.19
2023-03-13T02:22:25.441Z,72692.22
2023-03-13T02:23:01.294Z,72702.19
2023-03-13T02:23:39.737Z,72690.22
2023-03-13T02:24:19.321Z,72690.22
2023-03-13T02:24:57.219Z,72692.22
2023-03-13T02:25:44.231Z,72690.22
2023-03-13T02:26:17.506Z,72690.22
2023-03-13T02:26:49.773Z,72698.19
2023-03-13T02:27:24.922Z,72702.19
2023-03-13T02:28:01.165Z,72694.19
2023-03-13T02:28:36.372Z,72694.19
2023-03-13T02:29:18.626Z,72696.19
2023-03-13T02:29:52.377Z,72702.19
2023-03-13T02:30:25.352Z,72696.19
2023-03-13T02:31:00.528Z,72694.19
2023-03-13T02:31:32.926Z,72702.19
2023-03-13T02:32:05.964Z,72698.19
2023-03-13T02:32:41.508Z,72696.19
2023-03-13T02:33:15.727Z,72694.19
2023-03-13T02:33:48.065Z,72702.19
2023-03-13T02:34:30.671Z,72694.19
2023-03-13T02:35:08.118Z,72702.19
2023-03-13T02:35:40.931Z,72692.22
2023-03-13T02:36:20.379Z,72694.19
2023-03-13T02:36:52.987Z,72694.19
2023-03-13T02:37:26.473Z,72694.19
2023-03-13T02:38:02.460Z,72698.19
2023-03-13T02:38:41.587Z,72698.19
2023-03-13T02:39:14.864Z,72702.19
2023-03-13T02:39:48.768Z,72698.19
2023-03-13T02:40:27.136Z,72694.19
2023-03-13T02:41:03.081Z,72704.19
2023-03-13T02:41:35.676Z,72690.22
2023-03-13T02:42:10.898Z,72698.19
2023-03-13T02:42:45.898Z,72692.22
2023-03-13T02:43:21.136Z,72702.19
2023-03-13T02:43:56.512Z,72702.19
2023-03-13T02:44:28.854Z,72702.19
2023-03-13T02:45:02.135Z,72706.19
2023-03-13T02:45:36.990Z,72702.19
2023-03-13T02:46:11.794Z,72694.19
2023-03-13T02:46:52.585Z,72698.19
2023-03-13T02:47:29.270Z,72702.19
2023-03-13T02:48:01.696Z,72706.19
2023-03-13T02:48:36.915Z,72700.19
2023-03-13T02:49:22.970Z,72700.19
2023-03-13T02:49:55.571Z,72692.22
2023-03-13T02:50:28.089Z,72706.19
2023-03-13T02:51:04.442Z,72698.19
2023-03-13T02:51:40.237Z,72700.19
2023-03-13T02:52:19.559Z,72698.19
2023-03-13T02:52:54.616Z,72698.19
2023-03-13T02:53:27.320Z,72704.19
2023-03-13T02:54:04.140Z,72696.19
2023-03-13T02:54:38.692Z,72704.19
2023-03-13T02:55:18.133Z,72704.19
2023-03-13T02:55:53.373Z,72698.19
2023-03-13T02:56:30.860Z,72702.19
2023-03-13T02:57:07.604Z,72694.19
2023-03-13T02:57:39.936Z,72702.19
2023-03-13T02:58:12.716Z,72692.22
2023-03-13T02:58:50.373Z,72692.22
2023-03-13T02:59:25.976Z,72698.19
2023-03-13T02:59:58.498Z,72696.19
2023-03-13T03:00:33.779Z,72694.19
2023-03-13T03:01:08.161Z,72702.19
2023-03-13T03:01:46.456Z,72694.19
2023-03-13T03:02:18.696Z,72698.19
2023-03-13T03:02:50.945Z,72702.19
2023-03-13T03:03:25.840Z,72702.19
2023-03-13T03:03:58.157Z,72698.19
2023-03-13T03:04:33.622Z,72698.19
2023-03-13T03:05:06.949Z,72694.19
2023-03-13T03:05:39.269Z,72694.19
2023-03-13T03:06:14.118Z,72694.19
2023-03-13T03:06:46.866Z,72690.22
2023-03-13T03:07:19.176Z,72690.22
2023-03-13T03:07:54.516Z,72688.22
2023-03-13T03:08:26.841Z,72690.22
2023-03-13T03:08:59.141Z,72690.22
2023-03-13T03:09:35.929Z,72692.22
2023-03-13T03:10:13.586Z,72686.22
2023-03-13T03:10:46.840Z,72684.22
2023-03-13T03:11:21.981Z,72682.22
2023-03-13T03:12:02.512Z,72684.22
2023-03-13T03:12:35.203Z,72686.22
2023-03-13T03:13:10.707Z,72678.22
2023-03-13T03:13:42.951Z,72680.22
2023-03-13T03:14:15.351Z,72678.22
2023-03-13T03:14:53.228Z,72684.22
2023-03-13T03:15:26.165Z,72678.22
2023-03-13T03:15:58.465Z,72678.22
2023-03-13T03:16:33.476Z,72676.25
2023-03-13T03:17:05.795Z,72682.22
2023-03-13T03:17:38.120Z,72682.22
2023-03-13T03:18:13.519Z,72674.25
2023-03-13T03:18:45.898Z,72682.22
2023-03-13T03:19:18.189Z,72684.22
2023-03-13T03:19:53.063Z,72674.25
2023-03-13T03:20:25.821Z,72680.22
2023-03-13T03:20:58.087Z,72674.25
2023-03-13T03:21:33.003Z,72674.25
2023-03-13T03:22:05.341Z,72668.25
2023-03-13T03:22:40.769Z,72670.25
2023-03-13T03:23:15.695Z,72670.25
2023-03-13T03:23:47.932Z,72664.25
2023-03-13T03:24:21.292Z,72678.22
2023-03-13T03:24:53.596Z,72670.25
2023-03-13T03:25:28.433Z,72668.25
2023-03-13T03:26:01.235Z,72662.28
2023-03-13T03:26:33.544Z,72672.25
2023-03-13T03:27:11.279Z,72666.25
2023-03-13T03:27:49.935Z,72666.25
2023-03-13T03:28:22.264Z,72654.28
2023-03-13T03:28:57.396Z,72664.25
2023-03-13T03:29:29.861Z,72654.28
2023-03-13T03:30:04.609Z,72662.28
2023-03-13T03:30:41.273Z,72654.28
2023-03-13T03:31:15.282Z,72658.28
2023-03-13T03:31:47.828Z,72656.28
2023-03-13T03:32:22.833Z,72658.28
2023-03-13T03:32:55.266Z,72656.28
2023-03-13T03:33:28.732Z,72654.28
2023-03-13T03:34:03.719Z,72656.28
2023-03-13T03:34:36.230Z,72652.28
2023-03-13T03:35:09.100Z,72650.28
2023-03-13T03:35:44.191Z,72650.28
2023-03-13T03:36:20.140Z,72650.28
2023-03-13T03:36:52.892Z,72652.28
2023-03-13T03:37:27.860Z,72650.28
2023-03-13T03:38:00.975Z,72648.28
2023-03-13T03:38:33.296Z,72648.28
2023-03-13T03:39:08.463Z,72648.28
2023-03-13T03:39:41.056Z,72650.28
2023-03-13T03:40:14.246Z,72654.28
2023-03-13T03:40:49.191Z,72650.28
2023-03-13T03:41:22.014Z,72650.28
2023-03-13T03:41:54.364Z,72646.31
2023-03-13T03:42:32.775Z,72650.28
2023-03-13T03:43:06.229Z,72640.31
2023-03-13T03:43:38.557Z,72642.31
2023-03-13T03:44:15.100Z,72638.31
2023-03-13T03:45:01.852Z,72638.31
2023-03-13T03:45:34.286Z,72642.31
2023-03-13T03:46:10.294Z,72646.31
2023-03-13T03:46:44.256Z,72646.31
2023-03-13T03:47:17.952Z,72644.31
2023-03-13T03:47:55.374Z,72644.31
2023-03-13T03:48:27.825Z,72646.31
2023-03-13T03:49:00.166Z,72642.31
2023-03-13T03:49:32.414Z,72646.31
2023-03-13T03:50:08.355Z,72644.31
2023-03-13T03:50:48.447Z,72644.31
2023-03-13T03:51:22.545Z,72630.34
2023-03-13T03:51:57.364Z,72646.31
2023-03-13T03:52:35.617Z,72642.31
2023-03-13T03:53:10.804Z,72640.31
2023-03-13T03:53:43.135Z,72640.31
2023-03-13T03:54:18.100Z,72636.31
2023-03-13T03:54:50.348Z,72634.31
2023-03-13T03:55:23.565Z,72638.31
2023-03-13T03:55:58.609Z,72650.28
2023-03-13T03:56:31.103Z,72640.31
2023-03-13T03:57:05.402Z,72638.31
2023-03-13T03:57:43.700Z,72638.31
2023-03-13T03:58:20.862Z,72638.31
2023-03-13T03:59:21.799Z,72632.31
2023-03-13T04:00:00.865Z,72636.31
2023-03-13T04:00:33.125Z,72638.31
2023-03-13T04:01:08.324Z,72634.31
2023-03-13T04:01:40.686Z,72634.31
2023-03-13T04:02:12.984Z,72634.31
2023-03-13T04:02:50.267Z,72642.31
2023-03-13T04:03:22.584Z,72638.31
2023-03-13T04:03:54.975Z,72638.31
2023-03-13T04:04:29.886Z,72636.31
2023-03-13T04:05:08.082Z,72638.31
2023-03-13T04:05:42.033Z,72636.31
2023-03-13T04:06:18.108Z,72638.31
2023-03-13T04:06:51.467Z,72634.31
2023-03-13T04:07:23.730Z,72636.31
2023-03-13T04:07:59.180Z,72630.34
2023-03-13T04:08:31.451Z,72638.31
2023-03-13T04:09:04.954Z,72634.31
2023-03-13T04:09:40.623Z,72638.31
2023-03-13T04:10:15.573Z,72636.31
2023-03-13T04:10:50.060Z,72646.31
2023-03-13T04:11:27.199Z,72630.34
2023-03-13T04:12:01.175Z,72632.31
2023-03-13T04:12:34.842Z,72632.31
2023-03-13T04:13:12.768Z,72630.34
2023-03-13T04:13:45.086Z,72634.31
2023-03-13T04:14:17.597Z,72638.31
2023-03-13T04:14:53.351Z,72634.31
2023-03-13T04:15:26.420Z,72634.31
2023-03-13T04:16:01.404Z,72634.31
2023-03-13T04:16:35.048Z,72634.31
2023-03-13T04:17:07.546Z,72634.31
2023-03-13T04:17:39.833Z,72634.31
2023-03-13T04:18:16.707Z,72634.31
2023-03-13T04:18:49.518Z,72630.34
2023-03-13T04:19:23.039Z,72630.34
2023-03-13T04:19:58.386Z,72626.34
2023-03-13T04:20:31.532Z,72630.34
2023-03-13T04:21:05.141Z,72634.31
2023-03-13T04:21:47.166Z,72630.34
2023-03-13T04:22:22.797Z,72630.34
2023-03-13T04:22:59.963Z,72634.31
2023-03-13T04:23:34.982Z,72636.31
2023-03-13T04:24:09.011Z,72630.34
2023-03-13T04:24:42.788Z,72630.34
2023-03-13T04:25:17.671Z,72634.31
2023-03-13T04:25:51.908Z,72628.34
2023-03-13T04:26:24.337Z,72628.34
2023-03-13T04:27:02.668Z,72622.34
2023-03-13T04:27:36.165Z,72630.34
2023-03-13T04:28:11.892Z,72626.34
2023-03-13T04:28:52.353Z,72628.34
2023-03-13T04:29:33.780Z,72622.34
2023-03-13T04:30:31.434Z,72622.34
2023-03-13T04:31:30.558Z,72622.34
2023-03-13T04:32:14.982Z,72626.34
2023-03-13T04:33:16.263Z,72626.34
2023-03-13T04:34:09.692Z,72618.34
2023-03-13T04:35:00.411Z,72614.38
2023-03-13T04:35:58.162Z,72614.38
2023-03-13T04:36:44.542Z,72614.38
2023-03-13T04:37:44.060Z,72620.34
2023-03-13T04:38:38.911Z,72616.38
2023-03-13T04:39:25.840Z,72620.34
2023-03-13T04:40:19.030Z,72614.38
2023-03-13T04:41:11.524Z,72614.38
2023-03-13T04:41:59.726Z,72608.38
2023-03-13T04:42:52.273Z,72612.38
2023-03-13T04:43:48.470Z,72606.38
2023-03-13T04:44:35.408Z,72606.38
2023-03-13T04:45:29.088Z,72610.38
2023-03-13T04:46:11.819Z,72618.34
2023-03-13T04:47:10.950Z,72614.38
2023-03-13T04:48:15.283Z,72610.38
2023-03-13T04:49:13.780Z,72614.38
2023-03-13T04:50:05.503Z,72610.38
2023-03-13T04:50:57.272Z,72618.34
2023-03-13T04:51:38.613Z,72614.38
2023-03-13T04:52:16.655Z,72612.38
2023-03-13T04:53:08.317Z,72618.34
2023-03-13T04:54:15.968Z,72610.38
2023-03-13T04:55:04.579Z,72600.41
2023-03-13T04:55:54.772Z,72604.38
2023-03-13T04:56:49.869Z,72602.38
2023-03-13T04:57:33.869Z,72602.38
2023-03-13T04:58:31.600Z,72612.38
2023-03-13T04:59:18.940Z,72610.38
2023-03-13T05:00:11.642Z,72610.38
2023-03-13T05:01:04.376Z,72610.38
2023-03-13T05:01:58.056Z,72608.38
2023-03-13T05:02:56.701Z,72606.38
2023-03-13T05:03:31.523Z,72602.38
2023-03-13T05:04:18.240Z,72598.41
2023-03-13T05:05:12.346Z,72598.41
2023-03-13T05:06:13.724Z,72590.41
2023-03-13T05:07:05.482Z,72596.41
2023-03-13T05:07:51.963Z,72584.44
2023-03-13T05:08:58.779Z,72582.44
2023-03-13T05:09:57.259Z,72578.44
2023-03-13T05:10:50.981Z,72578.44
2023-03-13T05:11:50.508Z,72580.44
2023-03-13T05:12:51.564Z,72582.44
2023-03-13T05:13:34.683Z,72582.44
2023-03-13T05:14:30.849Z,72578.44
2023-03-13T05:15:35.195Z,72578.44
2023-03-13T05:16:28.686Z,72580.44
2023-03-13T05:17:35.505Z,72570.47
2023-03-13T05:18:30.635Z,72574.44
2023-03-13T05:19:26.281Z,72574.44
2023-03-13T05:20:23.218Z,72574.44
2023-03-13T05:21:03.722Z,72574.44
2023-03-13T05:21:44.631Z,72574.44
2023-03-13T05:22:51.101Z,72576.44
2023-03-13T05:23:23.595Z,72570.47
2023-03-13T05:24:01.636Z,72574.44
2023-03-13T05:24:57.732Z,72570.47
2023-03-13T05:25:45.090Z,72564.47
2023-03-13T05:26:44.788Z,72562.47
2023-03-13T05:27:43.168Z,72564.47
2023-03-13T05:28:44.220Z,72562.47
2023-03-13T05:29:29.292Z,72566.47
2023-03-13T05:30:15.835Z,72564.47
2023-03-13T05:31:08.379Z,72566.47
2023-03-13T05:32:06.537Z,72572.44
2023-03-13T05:32:51.417Z,72558.47
2023-03-13T05:33:42.499Z,72558.47
2023-03-13T05:34:33.943Z,72564.47
2023-03-13T05:35:35.610Z,72560.47
2023-03-13T05:36:27.355Z,72570.47
2023-03-13T05:37:40.819Z,72558.47
2023-03-13T05:38:34.919Z,72570.47
2023-03-13T05:39:19.999Z,72568.47
2023-03-13T05:40:17.995Z,72566.47
2023-03-13T05:41:10.522Z,72564.47
2023-03-13T05:42:03.566Z,72570.47
2023-03-13T05:43:03.369Z,72570.47
2023-03-13T05:43:55.788Z,72566.47
2023-03-13T05:45:08.897Z,72566.47
2023-03-13T05:46:12.729Z,72560.47
2023-03-13T05:47:04.168Z,72566.47
2023-03-13T05:47:56.020Z,72554.50
2023-03-13T05:48:49.250Z,72558.47
2023-03-13T05:49:41.743Z,72562.47
2023-03-13T05:50:39.599Z,72558.47
2023-03-13T05:51:50.195Z,72554.50
2023-03-13T05:52:43.491Z,72562.47
2023-03-13T05:53:15.707Z,72564.47
2023-03-13T05:54:02.294Z,72566.47
2023-03-13T05:54:55.081Z,72558.47
2023-03-13T05:55:27.324Z,72562.47
2023-03-13T05:56:15.898Z,72562.47
2023-03-13T05:57:13.765Z,72564.47
2023-03-13T05:58:14.422Z,72566.47
2023-03-13T05:58:57.248Z,72566.47
2023-03-13T05:59:52.346Z,72570.47
2023-03-13T06:00:45.560Z,72562.47
2023-03-13T06:01:46.192Z,72566.47
2023-03-13T06:02:31.083Z,72566.47
2023-03-13T06:03:06.643Z,72576.44
2023-03-13T06:03:43.687Z,72568.47
2023-03-13T06:04:18.262Z,72566.47
2023-03-13T06:04:54.473Z,72572.44
2023-03-13T06:05:27.017Z,72572.44
2023-03-13T06:06:02.662Z,72570.47
2023-03-13T06:06:40.287Z,72574.44
2023-03-13T06:07:12.903Z,72574.44
2023-03-13T06:07:47.929Z,72570.47
2023-03-13T06:08:21.748Z,72572.44
2023-03-13T06:08:55.152Z,72574.44
2023-03-13T06:09:33.004Z,72572.44
2023-03-13T06:10:06.279Z,72570.47
2023-03-13T06:10:41.292Z,72568.47
2023-03-13T06:11:13.624Z,72570.47
2023-03-13T06:11:46.034Z,72566.47
2023-03-13T06:12:21.297Z,72564.47
2023-03-13T06:12:54.040Z,72558.47
2023-03-13T06:13:27.596Z,72574.44
2023-03-13T06:14:04.340Z,72566.47
2023-03-13T06:14:50.902Z,72566.47
2023-03-13T06:15:38.959Z,72564.47
2023-03-13T06:16:25.536Z,72570.47
2023-03-13T06:17:05.042Z,72566.47
2023-03-13T06:17:37.304Z,72560.47
2023-03-13T06:18:09.525Z,72566.47
2023-03-13T06:18:44.380Z,72568.47
2023-03-13T06:19:16.658Z,72566.47
2023-03-13T06:19:48.908Z,72556.50
2023-03-13T06:20:23.745Z,72548.50
2023-03-13T06:21:00.941Z,72558.47
2023-03-13T06:21:33.202Z,72558.47
2023-03-13T06:22:08.178Z,72558.47
2023-03-13T06:22:40.896Z,72554.50
2023-03-13T06:23:13.224Z,72546.50
2023-03-13T06:23:48.074Z,72554.50
2023-03-13T06:24:20.316Z,72554.50
2023-03-13T06:24:52.599Z,72542.50
2023-03-13T06:25:27.500Z,72546.50
2023-03-13T06:26:00.983Z,72542.50
2023-03-13T06:26:33.205Z,72538.53
2023-03-13T06:27:08.067Z,72546.50
2023-03-13T06:27:41.569Z,72538.53
2023-03-13T06:28:13.856Z,72540.53
2023-03-13T06:28:48.913Z,72534.53
2023-03-13T06:29:21.271Z,72530.53
2023-03-13T06:29:56.159Z,72538.53
2023-03-13T06:30:28.607Z,72526.53
2023-03-13T06:31:08.006Z,72530.53
2023-03-13T06:31:42.989Z,72530.53
2023-03-13T06:32:17.998Z,72534.53
2023-03-13T06:32:50.718Z,72526.53
2023-03-13T06:33:23.058Z,72522.56
2023-03-13T06:33:58.315Z,72518.56
2023-03-13T06:34:30.829Z,72514.56
2023-03-13T06:35:03.048Z,72514.56
2023-03-13T06:35:53.176Z,72514.56
2023-03-13T06:36:27.954Z,72510.59
2023-03-13T06:37:02.873Z,72514.56
2023-03-13T06:37:35.746Z,72514.56
2023-03-13T06:38:10.895Z,72510.59
2023-03-13T06:38:43.142Z,72510.59
2023-03-13T06:39:15.481Z,72514.56
2023-03-13T06:39:50.312Z,72510.59
2023-03-13T06:40:22.579Z,72506.59
2023-03-13T06:40:55.059Z,72506.59
2023-03-13T06:41:30.556Z,72500.59
2023-03-13T06:42:04.148Z,72502.59
2023-03-13T06:42:36.387Z,72496.59
2023-03-13T06:43:11.234Z,72492.63
2023-03-13T06:43:43.573Z,72494.63
2023-03-13T06:44:15.824Z,72494.63
2023-03-13T06:44:50.664Z,72492.63
2023-03-13T06:45:22.893Z,72494.63
2023-03-13T06:45:57.761Z,72500.59
2023-03-13T06:46:30.236Z,72502.59
2023-03-13T06:47:08.099Z,72500.59
2023-03-13T06:47:40.423Z,72502.59
2023-03-13T06:48:12.695Z,72508.59
2023-03-13T06:48:47.603Z,72510.59
2023-03-13T06:49:19.864Z,72498.59
2023-03-13T06:49:52.105Z,72502.59
2023-03-13T06:50:26.945Z,72510.59
2023-03-13T06:50:59.363Z,72506.59
2023-03-13T06:51:31.934Z,72508.59
2023-03-13T06:52:06.895Z,72508.59
2023-03-13T06:52:43.901Z,72508.59
2023-03-13T06:53:18.305Z,72514.56
2023-03-13T06:53:53.577Z,72518.56
2023-03-13T06:54:26.049Z,72516.56
2023-03-13T06:54:58.295Z,72510.59
2023-03-13T06:55:33.226Z,72518.56
2023-03-13T06:56:06.256Z,72522.56
2023-03-13T06:56:38.524Z,72508.59
2023-03-13T06:57:14.148Z,72518.56
2023-03-13T06:57:50.580Z,72524.56
2023-03-13T06:58:32.105Z,72514.56
2023-03-13T06:59:07.556Z,72522.56
2023-03-13T06:59:39.808Z,72520.56
2023-03-13T07:00:13.024Z,72522.56
2023-03-13T07:00:47.941Z,72522.56
2023-03-13T07:01:20.246Z,72522.56
2023-03-13T07:01:55.216Z,72522.56
2023-03-13T07:02:30.100Z,72522.56
2023-03-13T07:03:05.002Z,72516.56
2023-03-13T07:03:37.458Z,72520.56
2023-03-13T07:04:14.514Z,72526.53
2023-03-13T07:04:46.889Z,72528.53
2023-03-13T07:05:21.707Z,72530.53
2023-03-13T07:05:56.494Z,72526.53
2023-03-13T07:06:31.347Z,72532.53
2023-03-13T07:07:03.784Z,72536.53
2023-03-13T07:07:38.760Z,72532.53
2023-03-13T07:08:11.069Z,72532.53
2023-03-13T07:08:46.487Z,72530.53
2023-03-13T07:09:20.127Z,72530.53
2023-03-13T07:09:52.358Z,72526.53
2023-03-13T07:10:27.208Z,72530.53
2023-03-13T07:11:01.215Z,72534.53
2023-03-13T07:11:33.503Z,72526.53
2023-03-13T07:12:09.351Z,72526.53
2023-03-13T07:12:41.692Z,72522.56
2023-03-13T07:13:13.940Z,72518.56
2023-03-13T07:13:48.921Z,72522.56
2023-03-13T07:14:21.285Z,72518.56
2023-03-13T07:14:56.129Z,72520.56
2023-03-13T07:15:28.410Z,72510.59
2023-03-13T07:16:04.500Z,72514.56
2023-03-13T07:16:37.077Z,72510.59
2023-03-13T07:17:09.498Z,72516.56
2023-03-13T07:17:47.174Z,72516.56
2023-03-13T07:18:19.419Z,72518.56
2023-03-13T07:18:54.328Z,72516.56
2023-03-13T07:19:27.523Z,72524.56
2023-03-13T07:20:02.647Z,72520.56
2023-03-13T07:20:35.474Z,72522.56